• Join FlightAware (Why Join?)
  • Login
  • US Flag 
04:17PM EDT


 

Airport Tracker/Info


-or-


 

Live Flight TrackerFlight Track Log ✈ EJA646 ✈ 18-Apr-2013 ✈ KTYS - KIAD

Flight Track Log - Related Links

Times and Time Zones

All times are in EDT time to prevent confusion due to time zone crossing. See the EJA646 flight status page for this flight to view local times or setup timezone preferences in your user account.

Time Position Orientation Groundspeed Altitude Reporting Facility
EDT Latitude Longitude Course Direction KTS MPH feet Rate Location/Type
10:18AM 35.7578 -84.0286 49° Northeast 150 173 5,300  Level Atlanta Center
10:19AM 35.7308 -83.9594 116° Southeast 137 158 8,400 2,580 Climbing Atlanta Center
10:20AM 35.7767 -83.8800 55° Northeast 181 208 10,500 2,040 Climbing Atlanta Center
10:21AM 35.8369 -83.7953 49° Northeast 247 284 12,500 2,100 Climbing Atlanta Center
10:22AM 35.9014 -83.7131 46° Northeast 289 333 14,700 2,040 Climbing Atlanta Center
10:23AM 36.2341 -83.3783 49° Northeast  Level FlightAware Approximate
10:23AM 35.9678 -83.6256 47° Northeast 323 372 16,600  Level Atlanta Center
10:24AM 36.0342 -83.5356 48° Northeast 342 394 18,700 2,100 Climbing Atlanta Center
10:25AM 36.1047 -83.4425 47° Northeast 358 412 20,900 2,100 Climbing Atlanta Center
10:26AM 36.1731 -83.3494 48° Northeast 365 420 22,900 1,860 Climbing Atlanta Center
10:27AM 36.2436 -83.2561 47° Northeast 371 427 24,700 1,740 Climbing Atlanta Center
10:28AM 36.3158 -83.1600 47° Northeast 371 427 26,400 1,500 Climbing Atlanta Center
10:29AM 36.3881 -83.0586 48° Northeast 377 434 27,700 900 Climbing Atlanta Center
10:30AM 36.4664 -82.9544 47° Northeast 390 449 28,300 600 Climbing Atlanta Center
10:31AM 36.5425 -82.8475 48° Northeast 410 472 29,000 660 Climbing Atlanta Center
10:32AM 36.6372 -82.7203 47° Northeast 432 497 29,700 840 Climbing Indianapolis Center
10:33AM 36.7175 -82.6119 47° Northeast 431 496 30,800 600 Climbing Indianapolis Center
10:34AM 36.7981 -82.5014 48° Northeast 435 501 31,000 60 Climbing Indianapolis Center
10:35AM 36.8950 -82.3694 47° Northeast 443 510 31,000  Level Indianapolis Center
10:36AM 36.9781 -82.2561 47° Northeast 444 511 31,000  Level Indianapolis Center
10:37AM 37.0617 -82.1408 48° Northeast 446 513 31,000  Level Indianapolis Center
10:38AM 37.1447 -82.0242 48° Northeast 450 518 31,000  Level Indianapolis Center
10:39AM 37.2269 -81.9086 48° Northeast 445 512 31,000  Level Indianapolis Center
10:40AM 37.3019 -81.7847 53° Northeast 446 513 31,000  Level Indianapolis Center
10:41AM 37.3747 -81.6592 54° Northeast 444 511 31,000  Level Indianapolis Center
10:42AM 37.4617 -81.5122 53° Northeast 446 513 31,000 240 Level Indianapolis Center
10:43AM 37.5281 -81.3997 53° Northeast 445 512 31,500 720 Climbing Indianapolis Center
10:44AM 37.5983 -81.2783 54° Northeast 440 506 32,500 720 Climbing Indianapolis Center
10:45AM 37.6836 -81.1344 53° Northeast 438 504 33,000 240 Climbing Indianapolis Center
10:46AM 37.7556 -81.0089 54° Northeast 450 518 33,000  Level Indianapolis Center
10:47AM 37.8294 -80.8792 54° Northeast 458 527 33,000  Level Washington Center
10:48AM 37.9014 -80.7553 54° Northeast 453 521 33,000  Level Washington Center
10:49AM 37.9928 -80.6219 49° Northeast 458 527 33,000  Level Washington Center
10:50AM 38.0828 -80.5092 45° Northeast 458 527 33,000  Level Washington Center
10:51AM 38.1747 -80.4017 43° Northeast 453 521 33,000  Level Washington Center
10:52AM 38.2667 -80.2939 43° Northeast 446 513 33,000  Level Washington Center
10:53AM 38.3417 -80.1875 48° Northeast 446 513 33,000  Level Washington Center
10:54AM 38.3828 -80.0417 70° East 433 498 33,000 -960 Level Washington Center
10:55AM 38.4175 -79.8900 74° East 431 496 31,100 -2,160 Descending Washington Center
10:56AM 38.4539 -79.7411 73° East 437 503 28,700 -2,400 Descending Washington Center
10:57AM 38.4903 -79.5892 73° East 437 503 26,400 -2,340 Descending Washington Center
10:58AM 38.5247 -79.4292 75° East 427 491 24,100 -1,200 Descending Washington Center
10:59AM 38.5522 -79.2844 76° East 427 491 24,000 -600 Descending Washington Center
11:00AM 38.5731 -79.1503 79° East 429 494 23,000 -1,620 Descending Washington Center
11:01AM 38.5958 -79.0106 78° East 422 486 20,800 -2,220 Descending Washington Center
11:02AM 38.6206 -78.8708 77° East 408 470 18,600 -2,100 Descending Washington Center
11:03AM 38.6469 -78.7417 75° East 389 448 16,700 -1,980 Descending Washington Center
11:04AM 38.6772 -78.6153 73° East 376 433 14,700 -1,980 Descending Washington Center
11:05AM 38.7053 -78.4942 73° East 369 425 12,800 -1,800 Descending Washington Center
11:06AM 38.7331 -78.3833 72° East 341 392 11,100 -1,500 Descending Washington Center
11:07AM 38.7892 -78.2975 50° Northeast 312 359 9,900 -1,080 Descending Washington Center
11:08AM 38.8472 -78.2172 47° Northeast 312 359 9,000 -1,200 Descending Washington Center
11:09AM 38.8767 -78.1142 70° East 301 346 7,600 -1,260 Descending Washington Center
11:10AM 38.9036 -78.0111 71° East 294 338 6,500 -900 Descending Washington Center
11:11AM 38.9286 -77.9106 72° East 294 338 5,900 -240 Descending Washington Center
11:12AM 38.9533 -77.8125 72° East 294 338 6,100 60 Climbing Washington Center
11:13AM 38.9572 -77.7086 87° East 270 311 6,100  Level Washington Center
11:14AM 38.9692 -77.6233 80° East 270 311 6,100  Level Washington Center
11:15AM 39.0167 -77.5833 33° Northeast 283 326 6,100  Level Potomac TRACON
11:16AM 39.0833 -77.5667 11° North 266 306 6,100  Level Potomac TRACON
11:17AM 39.1500 -77.5667 360° North 236 272 6,100  Level Potomac TRACON
11:18AM 39.2167 -77.5833 349° North 220 253 6,100 -240 Level Potomac TRACON
11:19AM 39.2667 -77.5667 14° North 224 258 5,700 -540 Descending Potomac TRACON
11:20AM 39.3167 -77.5333 27° Northeast 224 258 5,100 -300 Descending Potomac TRACON
11:21AM 39.3167 -77.4667 90° East 210 242 5,100 -60 Level Potomac TRACON
11:22AM 39.2833 -77.4500 159° South 163 188 5,000  Descending Potomac TRACON
11:23AM 39.2333 -77.4500 180° South 155 178 5,100 -180 Climbing Potomac TRACON
11:24AM 39.1833 -77.4500 180° South 156 180 4,700 -660 Descending Potomac TRACON
11:25AM 39.1500 -77.4500 180° South 153 176 3,800 -900 Descending Potomac TRACON